createdAt,value
2023-07-25T00:00:40.491Z,100178.19
2023-07-25T00:03:10.430Z,100183.16
2023-07-25T00:05:41.688Z,100182.41
2023-07-25T00:08:11.394Z,100180.41
2023-07-25T00:10:41.127Z,100179.88
2023-07-25T00:13:10.939Z,100182.09
2023-07-25T00:15:42.422Z,100187.13
2023-07-25T00:18:11.336Z,100181.53
2023-07-25T00:20:40.776Z,100180.84
2023-07-25T00:23:10.679Z,100185.06
2023-07-25T00:25:42.069Z,100187.25
2023-07-25T00:28:11.444Z,100184.41
2023-07-25T00:30:44.207Z,100188.47
2023-07-25T00:33:13.721Z,100192.09
2023-07-25T00:35:43.369Z,100201.78
2023-07-25T00:38:13.340Z,100203.19
2023-07-25T00:40:42.987Z,100202.28
2023-07-25T00:43:14.475Z,100193.53
2023-07-25T00:45:47.178Z,100195.28
2023-07-25T00:48:21.508Z,100199.22
2023-07-25T00:50:52.893Z,100204.72
2023-07-25T00:53:24.965Z,100208.56
2023-07-25T00:55:54.282Z,100204.09
2023-07-25T00:58:24.833Z,100205.53
2023-07-25T01:00:56.077Z,100205.38
2023-07-25T01:03:25.872Z,100199.38
2023-07-25T01:06:05.340Z,100193.50
2023-07-25T01:08:34.666Z,100198.91
2023-07-25T01:11:04.837Z,100200.19
2023-07-25T01:13:34.387Z,100203.28
2023-07-25T01:16:05.039Z,100203.09
2023-07-25T01:18:34.802Z,100212.19
2023-07-25T01:21:14.490Z,100208.69
2023-07-25T01:23:47.409Z,100207.00
2023-07-25T01:26:23.066Z,100219.69
2023-07-25T01:28:54.004Z,100211.34
2023-07-25T01:31:24.724Z,100225.66
2023-07-25T01:33:54.476Z,100218.84
2023-07-25T01:36:25.107Z,100230.03
2023-07-25T01:38:54.695Z,100229.13
2023-07-25T01:41:54.761Z,100242.22
2023-07-25T01:44:45.330Z,100241.75
2023-07-25T01:47:15.787Z,100247.75
2023-07-25T01:49:46.753Z,100244.84
2023-07-25T01:52:15.788Z,100250.69
2023-07-25T01:54:46.822Z,100259.63
2023-07-25T01:57:19.029Z,100263.28
2023-07-25T01:59:52.322Z,100252.56
2023-07-25T02:02:23.303Z,100254.84
2023-07-25T02:04:54.003Z,100254.38
2023-07-25T02:07:30.561Z,100257.47
2023-07-25T02:10:11.427Z,100263.19
2023-07-25T02:12:43.047Z,100271.09
2023-07-25T02:15:14.898Z,100268.50
2023-07-25T02:17:45.421Z,100271.38
2023-07-25T02:20:17.663Z,100282.88
2023-07-25T02:22:46.946Z,100286.88
2023-07-25T02:25:18.848Z,100290.09
2023-07-25T02:27:54.313Z,100287.56
2023-07-25T02:30:25.746Z,100300.66
2023-07-25T02:32:55.251Z,100296.94
2023-07-25T02:35:25.574Z,100302.66
2023-07-25T02:37:55.183Z,100303.28
2023-07-25T02:40:25.051Z,100297.25
2023-07-25T02:42:54.549Z,100298.06
2023-07-25T02:45:25.044Z,100316.56
2023-07-25T02:47:59.243Z,100316.63
2023-07-25T02:50:29.401Z,100316.22
2023-07-25T02:52:59.267Z,100316.38
2023-07-25T02:55:29.119Z,100314.16
2023-07-25T02:57:58.283Z,100309.88
2023-07-25T03:00:27.030Z,100304.38
2023-07-25T03:02:56.999Z,100306.00
2023-07-25T03:05:29.770Z,100304.22
2023-07-25T03:07:59.364Z,100309.16
2023-07-25T03:10:29.322Z,100313.34
2023-07-25T03:12:58.842Z,100316.75
2023-07-25T03:15:29.015Z,100316.50
2023-07-25T03:17:58.339Z,100317.72
2023-07-25T03:20:27.072Z,100316.69
2023-07-25T03:22:58.382Z,100305.72
2023-07-25T03:25:27.334Z,100312.84
2023-07-25T03:27:57.528Z,100312.38
2023-07-25T03:30:27.315Z,100310.41
2023-07-25T03:32:57.624Z,100320.41
2023-07-25T03:35:27.314Z,100314.31
2023-07-25T03:37:57.982Z,100318.84
2023-07-25T03:40:29.567Z,100319.84
2023-07-25T03:42:58.804Z,100320.66
2023-07-25T03:45:27.267Z,100330.44
2023-07-25T03:47:57.654Z,100332.44
2023-07-25T03:50:27.146Z,100334.63
2023-07-25T03:53:00.172Z,100334.03
2023-07-25T03:55:31.237Z,100337.47
2023-07-25T03:58:00.959Z,100335.38
2023-07-25T04:00:30.713Z,100330.94
2023-07-25T04:03:13.309Z,100329.69
2023-07-25T04:05:44.951Z,100338.84
2023-07-25T04:08:24.624Z,100332.56
2023-07-25T04:10:53.605Z,100338.84
2023-07-25T04:13:34.569Z,100341.31
2023-07-25T04:16:03.405Z,100340.38
2023-07-25T04:18:33.116Z,100329.78
2023-07-25T04:21:02.911Z,100332.66
2023-07-25T04:23:32.038Z,100337.72
2023-07-25T04:26:01.820Z,100337.72
2023-07-25T04:28:32.762Z,100335.91
2023-07-25T04:31:03.040Z,100344.13
2023-07-25T04:33:33.079Z,100350.28
2023-07-25T04:36:02.657Z,100348.94
2023-07-25T04:38:33.231Z,100338.13
2023-07-25T04:41:02.707Z,100341.13
2023-07-25T04:43:31.485Z,100339.88
2023-07-25T04:46:02.673Z,100343.47
2023-07-25T04:48:31.669Z,100344.06
2023-07-25T04:51:01.310Z,100347.09
2023-07-25T04:53:31.219Z,100347.06
2023-07-25T04:56:02.648Z,100349.63
2023-07-25T04:58:31.581Z,100346.75
2023-07-25T05:01:01.033Z,100342.03
2023-07-25T05:03:31.156Z,100341.03
2023-07-25T05:06:01.327Z,100338.47
2023-07-25T05:08:31.076Z,100340.59
2023-07-25T05:11:02.923Z,100341.25
2023-07-25T05:13:32.655Z,100336.69
2023-07-25T05:16:02.541Z,100335.44
2023-07-25T05:18:31.758Z,100336.31
2023-07-25T05:21:03.810Z,100337.72
2023-07-25T05:23:33.615Z,100323.84
2023-07-25T05:26:03.542Z,100317.09
2023-07-25T05:28:33.610Z,100321.38
2023-07-25T05:31:03.602Z,100303.63
2023-07-25T05:33:33.049Z,100297.88
2023-07-25T05:36:05.819Z,100292.56
2023-07-25T05:38:35.904Z,100289.63
2023-07-25T05:41:06.385Z,100278.69
2023-07-25T05:43:37.064Z,100280.91
2023-07-25T05:46:06.503Z,100276.84
2023-07-25T05:48:37.504Z,100281.66
2023-07-25T05:51:06.526Z,100283.44
2023-07-25T05:53:35.784Z,100288.63
2023-07-25T05:56:06.049Z,100281.94
2023-07-25T05:58:36.185Z,100270.56
2023-07-25T06:01:06.721Z,100282.41
2023-07-25T06:03:36.206Z,100291.84
2023-07-25T06:06:06.119Z,100288.13
2023-07-25T06:08:35.695Z,100278.28
2023-07-25T06:11:05.156Z,100281.69
2023-07-25T06:13:36.027Z,100285.09
2023-07-25T06:16:06.975Z,100274.13
2023-07-25T06:18:36.461Z,100275.91
2023-07-25T06:21:06.490Z,100284.34
2023-07-25T06:23:35.868Z,100285.91
2023-07-25T06:26:05.695Z,100284.00
2023-07-25T06:28:35.585Z,100284.28
2023-07-25T06:31:09.400Z,100280.81
2023-07-25T06:33:39.488Z,100274.53
2023-07-25T06:36:09.583Z,100268.09
2023-07-25T06:38:39.142Z,100274.38
2023-07-25T06:41:09.260Z,100269.84
2023-07-25T06:43:38.537Z,100268.75
2023-07-25T06:46:10.935Z,100278.78
2023-07-25T06:48:39.835Z,100272.28
2023-07-25T06:51:09.201Z,100259.56
2023-07-25T06:53:38.801Z,100258.25
2023-07-25T06:56:07.251Z,100273.81
2023-07-25T06:58:37.117Z,100277.66
2023-07-25T07:01:07.036Z,100277.69
2023-07-25T07:03:35.632Z,100275.25
2023-07-25T07:06:06.821Z,100264.22
2023-07-25T07:08:35.355Z,100269.28
2023-07-25T07:11:05.315Z,100264.47
2023-07-25T07:13:34.419Z,100261.03
2023-07-25T07:16:05.546Z,100262.31
2023-07-25T07:18:35.537Z,100256.00
2023-07-25T07:21:05.173Z,100242.03
2023-07-25T07:23:34.414Z,100239.34
2023-07-25T07:26:03.344Z,100234.34
2023-07-25T07:28:33.656Z,100224.94
2023-07-25T07:31:03.509Z,100224.22
2023-07-25T07:33:37.405Z,100230.47
2023-07-25T07:36:11.008Z,100234.13
2023-07-25T07:38:41.627Z,100234.91
2023-07-25T07:41:11.059Z,100244.47
2023-07-25T07:43:40.832Z,100243.47
2023-07-25T07:46:09.609Z,100245.59
2023-07-25T07:48:38.490Z,100242.72
2023-07-25T07:51:07.486Z,100249.44
2023-07-25T07:53:37.231Z,100238.31
2023-07-25T07:56:09.383Z,100242.06
2023-07-25T07:58:38.548Z,100242.38
2023-07-25T08:01:17.305Z,100238.22
2023-07-25T08:03:48.027Z,100243.81
2023-07-25T08:06:18.320Z,100244.78
2023-07-25T08:08:53.345Z,100252.88
2023-07-25T08:11:23.886Z,100248.34
2023-07-25T08:13:54.096Z,100242.63
2023-07-25T08:16:25.913Z,100236.03
2023-07-25T08:18:55.509Z,100241.56
2023-07-25T08:21:37.122Z,100244.72
2023-07-25T08:24:07.544Z,100241.06
2023-07-25T08:26:37.247Z,100255.13
2023-07-25T08:29:07.381Z,100242.69
2023-07-25T08:31:37.451Z,100239.81
2023-07-25T08:34:07.212Z,100229.25
2023-07-25T08:36:38.696Z,100241.81
2023-07-25T08:39:08.022Z,100245.41
2023-07-25T08:41:41.725Z,100249.16
2023-07-25T08:44:12.237Z,100257.44
2023-07-25T08:46:47.226Z,100251.09
2023-07-25T08:49:25.824Z,100239.59
2023-07-25T08:51:57.008Z,100242.00
2023-07-25T08:54:35.167Z,100240.75
2023-07-25T08:57:08.220Z,100241.91
2023-07-25T08:59:40.946Z,100237.63
2023-07-25T09:02:13.336Z,100237.75
2023-07-25T09:04:43.021Z,100235.91
2023-07-25T09:07:13.522Z,100233.69
2023-07-25T09:09:44.255Z,100244.34
2023-07-25T09:12:14.203Z,100241.06
2023-07-25T09:14:45.410Z,100243.16
2023-07-25T09:17:15.395Z,100245.69
2023-07-25T09:19:45.477Z,100248.69
2023-07-25T09:22:40.354Z,100246.31
2023-07-25T09:25:11.313Z,100240.41
2023-07-25T09:27:39.899Z,100252.22
2023-07-25T09:30:15.419Z,100249.19
2023-07-25T09:32:50.075Z,100252.13
2023-07-25T09:35:20.617Z,100252.38
2023-07-25T09:37:57.214Z,100253.97
2023-07-25T09:40:26.918Z,100263.88
2023-07-25T09:42:56.023Z,100269.44
2023-07-25T09:45:26.698Z,100281.66
2023-07-25T09:47:56.470Z,100282.16
2023-07-25T09:50:29.229Z,100287.19
2023-07-25T09:53:04.675Z,100291.06
2023-07-25T09:55:34.628Z,100291.28
2023-07-25T09:58:06.870Z,100283.53
2023-07-25T10:00:35.854Z,100282.69
2023-07-25T10:03:07.216Z,100273.53
2023-07-25T10:05:39.482Z,100278.50
2023-07-25T10:08:11.082Z,100285.38
2023-07-25T10:10:42.739Z,100284.13
2023-07-25T10:13:12.483Z,100284.34
2023-07-25T10:15:43.377Z,100296.19
2023-07-25T10:18:43.229Z,100294.28
2023-07-25T10:21:15.960Z,100303.28
2023-07-25T10:23:55.449Z,100307.66
2023-07-25T10:26:26.232Z,100312.22
2023-07-25T10:28:55.422Z,100312.72
2023-07-25T10:31:35.744Z,100311.72
2023-07-25T10:34:07.513Z,100313.81
2023-07-25T10:36:35.977Z,100324.34
2023-07-25T10:39:11.250Z,100328.78
2023-07-25T10:41:40.625Z,100325.63
2023-07-25T10:44:10.738Z,100327.63
2023-07-25T10:46:39.751Z,100335.47
2023-07-25T10:49:19.153Z,100324.22
2023-07-25T10:51:55.038Z,100308.19
2023-07-25T10:54:26.682Z,100315.81
2023-07-25T10:57:15.856Z,100313.28
2023-07-25T11:00:06.878Z,100308.75
2023-07-25T11:02:42.982Z,100314.88
2023-07-25T11:05:15.653Z,100311.13
2023-07-25T11:07:48.138Z,100302.53
2023-07-25T11:10:25.271Z,100295.41
2023-07-25T11:13:02.083Z,100297.78
2023-07-25T11:15:46.691Z,100301.78
2023-07-25T11:18:15.944Z,100297.50
2023-07-25T11:20:59.552Z,100295.03
2023-07-25T11:23:29.777Z,100306.50
2023-07-25T11:26:03.126Z,100319.47
2023-07-25T11:28:33.146Z,100310.56
2023-07-25T11:31:08.115Z,100314.56
2023-07-25T11:33:48.442Z,100317.09
2023-07-25T11:36:20.817Z,100311.84
2023-07-25T11:38:51.784Z,100312.81
2023-07-25T11:41:23.576Z,100316.72
2023-07-25T11:43:53.920Z,100324.59
2023-07-25T11:46:23.889Z,100326.88
2023-07-25T11:48:54.173Z,100325.25
2023-07-25T11:51:24.787Z,100314.59
2023-07-25T11:54:01.370Z,100337.38
2023-07-25T11:56:31.564Z,100340.69
2023-07-25T11:59:02.392Z,100347.78
2023-07-25T12:01:35.506Z,100337.13
2023-07-25T12:04:15.697Z,100313.16
2023-07-25T12:06:45.622Z,100309.91
2023-07-25T12:09:15.252Z,100312.66
2023-07-25T12:11:46.384Z,100325.50
2023-07-25T12:14:17.428Z,100331.50
2023-07-25T12:16:48.076Z,100325.19
2023-07-25T12:19:53.407Z,100319.78
2023-07-25T12:22:26.904Z,100329.72
2023-07-25T12:24:56.165Z,100334.88
2023-07-25T12:27:25.734Z,100340.09
2023-07-25T12:29:55.233Z,100330.19
2023-07-25T12:32:25.778Z,100332.31
2023-07-25T12:35:13.616Z,100332.16
2023-07-25T12:37:43.047Z,100340.41
2023-07-25T12:40:12.212Z,100350.94
2023-07-25T12:42:42.253Z,100348.69
2023-07-25T12:45:11.936Z,100355.03
2023-07-25T12:47:42.992Z,100354.81
2023-07-25T12:50:12.367Z,100363.69
2023-07-25T12:53:06.463Z,100362.22
2023-07-25T12:55:47.126Z,100363.19
2023-07-25T12:58:16.775Z,100358.31
2023-07-25T13:00:46.382Z,100371.44
2023-07-25T13:03:17.712Z,100369.81
2023-07-25T13:05:47.511Z,100364.63
2023-07-25T13:08:17.565Z,100363.50
2023-07-25T13:10:51.199Z,100363.53
2023-07-25T13:13:21.182Z,100362.91
2023-07-25T13:15:53.572Z,100373.59
2023-07-25T13:18:25.766Z,100362.31
2023-07-25T13:20:54.987Z,100375.34
2023-07-25T13:23:26.985Z,100366.47
2023-07-25T13:25:56.298Z,100364.66
2023-07-25T13:28:29.015Z,100359.75
2023-07-25T13:30:58.967Z,100358.94
2023-07-25T13:33:28.068Z,100360.88
2023-07-25T13:35:59.580Z,100360.25
2023-07-25T13:38:29.385Z,100359.72
2023-07-25T13:41:03.557Z,100364.31
2023-07-25T13:43:33.135Z,100354.03
2023-07-25T13:46:04.802Z,100353.19
2023-07-25T13:48:34.901Z,100360.53
2023-07-25T13:51:05.137Z,100363.50
2023-07-25T13:53:38.110Z,100366.19
2023-07-25T13:56:07.613Z,100371.78
2023-07-25T13:58:37.601Z,100378.31
2023-07-25T14:01:10.987Z,100378.84
2023-07-25T14:03:54.178Z,100382.41
2023-07-25T14:06:28.307Z,100383.19
2023-07-25T14:09:10.528Z,100380.84
2023-07-25T14:11:57.086Z,100383.72
2023-07-25T14:14:40.374Z,100383.78
2023-07-25T14:17:10.592Z,100378.81
2023-07-25T14:19:40.581Z,100384.75
2023-07-25T14:22:12.133Z,100378.41
2023-07-25T14:24:43.814Z,100388.41
2023-07-25T14:27:13.359Z,100381.72
2023-07-25T14:29:50.990Z,100387.50
2023-07-25T14:32:21.929Z,100397.88
2023-07-25T14:34:52.597Z,100393.00
2023-07-25T14:37:24.304Z,100391.69
2023-07-25T14:39:54.861Z,100389.00
2023-07-25T14:42:25.460Z,100387.22
2023-07-25T14:44:54.993Z,100391.28
2023-07-25T14:47:25.659Z,100391.69
2023-07-25T14:49:55.234Z,100394.63
2023-07-25T14:52:30.013Z,100394.31
2023-07-25T14:54:59.665Z,100394.28
2023-07-25T14:57:29.570Z,100387.03
2023-07-25T14:59:58.529Z,100390.41
2023-07-25T15:02:27.651Z,100397.25
2023-07-25T15:04:57.432Z,100391.25
2023-07-25T15:07:27.607Z,100393.19
2023-07-25T15:09:57.313Z,100402.22
2023-07-25T15:12:29.481Z,100402.13
2023-07-25T15:15:01.854Z,100397.44
2023-07-25T15:17:35.620Z,100399.00
2023-07-25T15:20:11.020Z,100400.84
2023-07-25T15:22:39.962Z,100398.19
2023-07-25T15:25:09.977Z,100395.38
2023-07-25T15:30:50.840Z,100395.91
2023-07-25T15:33:36.529Z,100387.56
2023-07-25T15:36:25.730Z,100389.28
2023-07-25T15:38:55.263Z,100387.84
2023-07-25T15:41:24.582Z,100387.03
2023-07-25T15:43:58.347Z,100389.34
2023-07-25T15:46:27.720Z,100386.53
2023-07-25T15:48:58.280Z,100396.50
2023-07-25T15:51:28.141Z,100385.34
2023-07-25T15:54:03.065Z,100379.53
2023-07-25T15:56:32.344Z,100378.03
2023-07-25T15:59:03.158Z,100382.66
2023-07-25T16:01:33.705Z,100375.69
2023-07-25T16:04:04.707Z,100374.66
2023-07-25T16:06:35.912Z,100364.38
2023-07-25T16:09:05.939Z,100365.75
2023-07-25T16:11:35.652Z,100354.66
2023-07-25T16:14:10.069Z,100344.00
2023-07-25T16:16:40.287Z,100340.31
2023-07-25T16:19:09.668Z,100329.56
2023-07-25T16:21:51.576Z,100326.00
2023-07-25T16:24:25.642Z,100319.47
2023-07-25T16:27:35.472Z,100307.19
2023-07-25T16:30:07.943Z,100313.59
2023-07-25T16:32:37.862Z,100312.19
2023-07-25T16:35:09.885Z,100309.88
2023-07-25T16:37:42.717Z,100315.06
2023-07-25T16:40:12.668Z,100303.03
2023-07-25T16:42:45.752Z,100294.09
2023-07-25T16:45:22.973Z,100278.75
2023-07-25T16:47:55.545Z,100280.84
2023-07-25T16:50:25.791Z,100283.53
2023-07-25T16:52:55.822Z,100285.03
2023-07-25T16:55:26.494Z,100283.41
2023-07-25T16:57:57.909Z,100279.28
2023-07-25T17:00:28.894Z,100285.66
2023-07-25T17:03:02.966Z,100285.03
2023-07-25T17:05:31.598Z,100288.81
2023-07-25T17:08:01.676Z,100275.81
2023-07-25T17:10:34.405Z,100283.31
2023-07-25T17:13:05.815Z,100274.75
2023-07-25T17:15:38.514Z,100268.13
2023-07-25T17:18:10.294Z,100265.81
2023-07-25T17:20:40.137Z,100256.13
2023-07-25T17:23:13.674Z,100246.41
2023-07-25T17:25:45.546Z,100242.06
2023-07-25T17:28:19.989Z,100243.59
2023-07-25T17:31:00.335Z,100240.34
2023-07-25T17:33:51.067Z,100235.16
2023-07-25T17:36:27.333Z,100226.94
2023-07-25T17:38:58.935Z,100221.66
2023-07-25T17:41:32.021Z,100208.66
2023-07-25T17:44:02.009Z,100212.13
2023-07-25T17:46:31.581Z,100199.16
2023-07-25T17:49:02.030Z,100200.25
2023-07-25T17:51:40.428Z,100191.34
2023-07-25T17:54:12.517Z,100182.47
2023-07-25T17:56:45.908Z,100189.09
2023-07-25T17:59:15.634Z,100184.53
2023-07-25T18:01:44.952Z,100178.84
2023-07-25T18:04:13.975Z,100178.06
2023-07-25T18:06:43.607Z,100181.25
2023-07-25T18:09:14.036Z,100173.47
2023-07-25T18:11:55.996Z,100166.81
2023-07-25T18:14:35.008Z,100179.88
2023-07-25T18:17:25.081Z,100179.84
2023-07-25T18:19:56.825Z,100185.78
2023-07-25T18:22:27.800Z,100171.09
2023-07-25T18:25:01.971Z,100179.66
2023-07-25T18:27:31.724Z,100177.19
2023-07-25T18:30:03.163Z,100177.63
2023-07-25T18:32:34.777Z,100179.16
2023-07-25T18:35:05.386Z,100173.75
2023-07-25T18:37:36.735Z,100187.78
2023-07-25T18:40:10.365Z,100186.75
2023-07-25T18:42:42.139Z,100179.38
2023-07-25T18:45:13.967Z,100170.13
2023-07-25T18:47:43.723Z,100174.59
2023-07-25T18:50:14.598Z,100179.56
2023-07-25T18:52:43.751Z,100178.31
2023-07-25T18:55:14.636Z,100175.09
2023-07-25T18:57:43.985Z,100174.25
2023-07-25T19:00:15.519Z,100178.53
2023-07-25T19:02:45.876Z,100172.97
2023-07-25T19:05:15.667Z,100162.72
2023-07-25T19:07:44.243Z,100166.06
2023-07-25T19:10:18.849Z,100175.84
2023-07-25T19:12:52.528Z,100170.59
2023-07-25T19:15:26.227Z,100165.81
2023-07-25T19:17:58.015Z,100164.88
2023-07-25T19:20:28.237Z,100154.91
2023-07-25T19:23:02.593Z,100159.50
2023-07-25T19:25:39.494Z,100155.84
2023-07-25T19:28:10.381Z,100152.75
2023-07-25T19:30:45.938Z,100160.41
2023-07-25T19:33:21.512Z,100161.31
2023-07-25T19:36:00.236Z,100152.91
2023-07-25T19:38:31.275Z,100162.53
2023-07-25T19:41:02.788Z,100158.78
2023-07-25T19:43:31.601Z,100162.38
2023-07-25T19:46:06.899Z,100156.31
2023-07-25T19:48:36.476Z,100165.81
2023-07-25T19:51:16.136Z,100156.09
2023-07-25T19:53:51.704Z,100147.34
2023-07-25T19:56:22.677Z,100147.81
2023-07-25T19:58:55.798Z,100142.28
2023-07-25T20:01:27.987Z,100159.78
2023-07-25T20:03:59.659Z,100147.28
2023-07-25T20:06:32.266Z,100145.53
2023-07-25T20:09:03.525Z,100154.06
2023-07-25T20:11:34.243Z,100153.56
2023-07-25T20:14:04.051Z,100147.56
2023-07-25T20:16:34.453Z,100145.28
2023-07-25T20:19:04.203Z,100148.03
2023-07-25T20:21:33.930Z,100150.28
2023-07-25T20:24:03.557Z,100155.66
2023-07-25T20:26:32.210Z,100148.53
2023-07-25T20:29:02.109Z,100144.94
2023-07-25T20:31:32.003Z,100148.38
2023-07-25T20:34:04.761Z,100151.09
2023-07-25T20:36:34.348Z,100144.94
2023-07-25T20:39:03.882Z,100145.78
2023-07-25T20:41:35.597Z,100151.09
2023-07-25T20:44:04.152Z,100158.91
2023-07-25T20:46:34.114Z,100152.38
2023-07-25T20:49:05.269Z,100149.38
2023-07-25T20:51:34.533Z,100149.63
2023-07-25T20:54:03.811Z,100160.09
2023-07-25T20:56:33.980Z,100153.91
2023-07-25T20:59:03.225Z,100154.50
2023-07-25T21:01:32.077Z,100160.63
2023-07-25T21:04:02.486Z,100161.78
2023-07-25T21:06:31.912Z,100158.72
2023-07-25T21:09:01.729Z,100155.56
2023-07-25T21:11:31.853Z,100170.09
2023-07-25T21:14:01.825Z,100156.59
2023-07-25T21:16:31.958Z,100161.63
2023-07-25T21:19:01.656Z,100167.16
2023-07-25T21:21:31.768Z,100167.28
2023-07-25T21:24:02.007Z,100167.16
2023-07-25T21:26:32.010Z,100177.75
2023-07-25T21:29:01.704Z,100171.59
2023-07-25T21:31:31.456Z,100175.31
2023-07-25T21:34:03.066Z,100166.09
2023-07-25T21:36:32.155Z,100161.06
2023-07-25T21:39:01.580Z,100153.00
2023-07-25T21:41:30.822Z,100155.75
2023-07-25T21:44:01.792Z,100151.28
2023-07-25T21:46:31.623Z,100152.09
2023-07-25T21:49:04.545Z,100153.38
2023-07-25T21:51:35.477Z,100166.41
2023-07-25T21:54:04.151Z,100154.75
2023-07-25T21:56:36.291Z,100155.03
2023-07-25T21:59:06.108Z,100158.75
2023-07-25T22:01:36.037Z,100147.75
2023-07-25T22:04:09.966Z,100148.19
2023-07-25T22:06:40.239Z,100145.28
2023-07-25T22:09:10.558Z,100145.47
2023-07-25T22:11:40.330Z,100148.38
2023-07-25T22:14:10.205Z,100139.56
2023-07-25T22:16:39.974Z,100142.03
2023-07-25T22:19:10.024Z,100134.59
2023-07-25T22:21:39.824Z,100143.81
2023-07-25T22:24:09.283Z,100141.88
2023-07-25T22:26:43.762Z,100143.47
2023-07-25T22:29:13.640Z,100145.28
2023-07-25T22:31:43.084Z,100147.38
2023-07-25T22:34:13.854Z,100150.28
2023-07-25T22:36:43.235Z,100146.41
2023-07-25T22:39:12.332Z,100141.81
2023-07-25T22:41:42.282Z,100147.22
2023-07-25T22:44:11.401Z,100152.91
2023-07-25T22:46:42.356Z,100169.13
2023-07-25T22:49:11.950Z,100171.56
2023-07-25T22:51:41.384Z,100162.78
2023-07-25T22:54:09.945Z,100167.50
2023-07-25T22:56:39.293Z,100166.47
2023-07-25T22:59:08.176Z,100157.81
2023-07-25T23:01:40.723Z,100161.84
2023-07-25T23:04:09.974Z,100164.78
2023-07-25T23:06:39.984Z,100171.59
2023-07-25T23:09:11.393Z,100177.13
2023-07-25T23:11:43.423Z,100184.72
2023-07-25T23:14:14.115Z,100186.69
2023-07-25T23:16:44.173Z,100179.22
2023-07-25T23:19:14.441Z,100186.03
2023-07-25T23:21:44.104Z,100185.56
2023-07-25T23:24:13.841Z,100189.78
2023-07-25T23:26:43.607Z,100184.84
2023-07-25T23:29:15.328Z,100181.88
2023-07-25T23:31:44.012Z,100177.72
2023-07-25T23:34:19.350Z,100173.75
2023-07-25T23:36:50.816Z,100173.69
2023-07-25T23:39:19.960Z,100181.31
2023-07-25T23:41:53.809Z,100196.09
2023-07-25T23:44:24.171Z,100201.50
2023-07-25T23:46:53.815Z,100212.31
2023-07-25T23:49:24.351Z,100224.19
2023-07-25T23:51:55.549Z,100235.88
2023-07-25T23:54:25.477Z,100257.31
2023-07-25T23:56:55.314Z,100256.38
2023-07-25T23:59:25.575Z,100248.25
